createdAt,value
2022-09-03T17:33:56.546Z,100932.70
2022-09-03T17:37:32.891Z,100937.88
2022-09-03T17:41:19.696Z,100942.98
2022-09-03T17:45:04.384Z,100944.45
2022-09-03T17:48:52.504Z,100951.64
2022-09-03T17:52:29.858Z,100954.38
2022-09-03T17:56:02.780Z,100951.51
2022-09-03T17:59:44.330Z,100959.89
2022-09-03T18:03:21.625Z,100965.57
2022-09-03T18:06:59.342Z,100964.83
2022-09-03T18:10:40.930Z,100971.46
2022-09-03T18:14:23.825Z,100972.80
2022-09-03T18:17:58.685Z,100978.94
2022-09-03T18:21:46.835Z,100978.66
2022-09-03T18:25:34.104Z,100979.42
2022-09-03T18:29:23.706Z,100986.55
2022-09-03T18:33:08.060Z,100989.24
2022-09-03T18:36:52.830Z,100989.29
2022-09-03T18:40:41.793Z,100992.31
2022-09-03T18:44:37.191Z,100993.56
2022-09-03T18:48:31.832Z,100995.70
2022-09-03T18:52:25.936Z,100994.84
2022-09-03T18:56:22.424Z,100993.27
2022-09-03T19:00:28.635Z,100994.67
2022-09-03T19:04:26.374Z,100995.92
2022-09-03T19:08:19.652Z,101001.20
2022-09-03T19:12:14.416Z,101002.98
2022-09-03T19:16:04.391Z,101005.31
2022-09-03T19:20:15.213Z,101013.98
2022-09-03T19:24:00.499Z,101020.70
2022-09-03T19:27:59.324Z,101022.13
2022-09-03T19:32:00.248Z,101027.96
2022-09-03T19:37:18.998Z,101024.80
2022-09-03T19:41:17.906Z,101031.36
2022-09-03T19:45:17.887Z,101032.95
2022-09-03T19:49:15.496Z,101040.02
2022-09-03T19:53:06.937Z,101044.63
2022-09-03T19:56:52.216Z,101045.68
2022-09-03T20:00:37.303Z,101046.58
2022-09-03T20:04:32.797Z,101048.12
2022-09-03T20:08:18.146Z,101057.09
2022-09-03T20:11:46.415Z,101061.67
2022-09-03T20:15:14.746Z,101064.83
2022-09-03T20:18:51.365Z,101068.67
2022-09-03T20:22:28.669Z,101063.38
2022-09-03T20:26:10.572Z,101068.84
2022-09-03T20:29:54.638Z,101072.15
2022-09-03T20:33:48.170Z,101076.53
2022-09-03T20:37:27.927Z,101082.67
2022-09-03T20:41:01.590Z,101084.05
2022-09-03T20:44:47.420Z,101085.61
2022-09-03T20:48:23.835Z,101089.84
2022-09-03T20:51:58.567Z,101089.45
2022-09-03T20:55:30.032Z,101089.27
2022-09-03T20:59:11.849Z,101092.94
2022-09-03T21:02:53.450Z,101093.09
2022-09-03T21:06:30.887Z,101092.52
2022-09-03T21:10:03.708Z,101088.59
2022-09-03T21:13:41.731Z,101093.84
2022-09-03T21:17:30.675Z,101097.49
2022-09-03T21:21:09.650Z,101092.35
2022-09-03T21:24:41.273Z,101093.89
2022-09-03T21:28:15.197Z,101099.14
2022-09-03T21:31:49.633Z,101099.30
2022-09-03T21:35:24.684Z,101102.09
2022-09-03T21:38:59.756Z,101104.38
2022-09-03T21:42:37.559Z,101105.42
2022-09-03T21:46:10.804Z,101108.76
2022-09-03T21:49:44.695Z,101102.77
2022-09-03T21:53:17.565Z,101115.39
2022-09-03T21:57:09.654Z,101116.09
2022-09-03T22:00:37.836Z,101124.88
2022-09-03T22:04:04.888Z,101127.13
2022-09-03T22:07:45.988Z,101131.33
2022-09-03T22:11:26.120Z,101129.90
2022-09-03T22:14:55.697Z,101130.05
2022-09-03T22:18:28.775Z,101129.67
2022-09-03T22:22:00.411Z,101125.27
2022-09-03T22:25:36.030Z,101130.01
2022-09-03T22:29:09.980Z,101131.55
2022-09-03T22:32:51.939Z,101134.71
2022-09-03T22:36:24.719Z,101127.30
2022-09-03T22:39:56.440Z,101132.21
2022-09-03T22:43:41.508Z,101129.21
2022-09-03T22:47:20.353Z,101126.39
2022-09-03T22:50:52.612Z,101126.02
2022-09-03T22:54:34.806Z,101121.96
2022-09-03T22:58:04.755Z,101123.02
2022-09-03T23:01:36.985Z,101127.23
2022-09-03T23:05:08.954Z,101125.66
2022-09-03T23:08:40.152Z,101123.15
2022-09-03T23:12:13.948Z,101125.79
2022-09-03T23:15:43.275Z,101122.25
2022-09-03T23:19:38.887Z,101120.66
2022-09-03T23:23:16.986Z,101120.30
2022-09-03T23:26:47.966Z,101118.70
2022-09-03T23:30:15.248Z,101115.55
2022-09-03T23:33:42.220Z,101119.04
2022-09-03T23:37:34.052Z,101119.20
2022-09-03T23:41:07.521Z,101117.26
2022-09-03T23:44:54.644Z,101116.17
2022-09-03T23:48:36.766Z,101117.73
2022-09-03T23:52:22.807Z,101116.80
2022-09-03T23:56:02.681Z,101119.94
2022-09-03T23:59:36.704Z,101119.58
